Terminal Aerodrome Forecast
Issued by NWS

Home | Current Version | Previous Version | Text Only | Print | Product List | Glossary On
Versions: 1 2 3 4 5 6 7 8 9 10 11 12 13 14 15 16 17 18 19 20 21 22 23 24
000
FTUS43 KDVN 250141 AAA
TAFCID
TAF AMD
KCID 250141Z 2502/2524 08012KT P6SM VCTS FEW030CB OVC050
      TEMPO 2502/2506 2SM -TSRA SCT020CB OVC030
     FM250600 11012KT 6SM BR VCSH SCT012 OVC020
     FM250900 09015KT 1 1/2SM RA BR SCT007 OVC012
     FM251700 06014G21KT 6SM BR VCSH OVC020=

USA.gov is the U.S. government's official web portal to all federal, state and local government web resources and services.